Time;durP1;ratioP1;P1;durP2;ratioP2;P2;SDS_P1;SDS_P2;PMS_P1;PMS_P2;Temp;Humidity;BMP_temperature;BMP_pressure;BME280_temperature;BME280_humidity;BME280_pressure;Samples;Min_cycle;Max_cycle;Signal;HPM_P1;HPM_P2
2023/06/13 06:59:14;;;;;;;21.13;11.18;;;25.40;79.30;;;;;;3203431;19;57997600;-77
2023/06/13 07:01:43;;;;;;;21.00;11.27;;;25.90;77.00;;;;;;7417236;19;20034;-76
2023/06/13 07:04:40;;;;;;;27.88;11.52;;;25.90;75.80;;;;;;7421722;19;20007;-79
2023/06/13 07:07:14;;;;;;;22.20;10.77;;;25.90;75.10;;;;;;7417359;19;20232;-80
2023/06/13 07:12:59;;;;;;;20.75;9.80;;;26.00;74.40;;;;;;7416342;19;20039;-77
2023/06/13 07:15:34;;;;;;;15.88;9.82;;;26.10;74.10;;;;;;7438628;19;20006;-80
2023/06/13 07:18:18;;;;;;;16.63;10.68;;;26.00;72.70;;;;;;7420181;19;20006;-80
2023/06/13 07:20:47;;;;;;;16.75;10.13;;;26.00;72.90;;;;;;7417736;19;20014;-77
2023/06/13 07:23:16;;;;;;;20.30;9.82;;;26.20;73.00;;;;;;7434719;19;20243;-77
2023/06/13 07:25:46;;;;;;;20.77;9.85;;;26.20;72.90;;;;;;7415865;19;20271;-76
2023/06/13 07:28:15;;;;;;;18.75;9.63;;;26.20;72.00;;;;;;7415132;19;20007;-74
2023/06/13 07:30:47;;;;;;;18.40;9.73;;;26.30;72.10;;;;;;7414592;19;20006;-76
2023/06/13 07:33:15;;;;;;;21.85;11.02;;;26.40;73.30;;;;;;7414312;19;20019;-77
2023/06/13 07:35:44;;;;;;;19.33;11.52;;;26.40;72.50;;;;;;7416409;19;20007;-75
2023/06/13 07:38:13;;;;;;;20.70;11.63;;;26.40;71.90;;;;;;7437226;19;20296;-74
2023/06/13 07:40:42;;;;;;;18.83;10.77;;;26.40;71.90;;;;;;7415376;19;20366;-74
2023/06/13 07:43:10;;;;;;;24.05;10.88;;;26.50;72.30;;;;;;7416120;19;20070;-74
2023/06/13 07:45:39;;;;;;;18.40;9.93;;;26.50;72.60;;;;;;7415700;19;20014;-75
2023/06/13 07:48:10;;;;;;;19.27;10.77;;;26.50;72.70;;;;;;7413523;19;20002;-72
2023/06/13 07:50:41;;;;;;;20.30;10.43;;;26.60;71.30;;;;;;7425510;19;20069;-68
2023/06/13 07:53:11;;;;;;;17.05;11.15;;;26.60;70.80;;;;;;7434631;19;20062;-68
2023/06/13 07:55:40;;;;;;;19.13;11.52;;;26.70;71.20;;;;;;7414013;19;20023;-69
2023/06/13 07:58:09;;;;;;;18.83;9.85;;;26.70;70.70;;;;;;7407016;19;20043;-68
2023/06/13 08:00:37;;;;;;;22.45;11.40;;;26.70;69.90;;;;;;7385978;19;20066;-68
2023/06/13 08:03:06;;;;;;;22.83;10.38;;;26.70;70.50;;;;;;7384565;19;20062;-69
2023/06/13 08:05:37;;;;;;;21.70;9.55;;;26.70;71.10;;;;;;7405447;19;20019;-69
2023/06/13 08:08:06;;;;;;;14.23;9.27;;;26.70;69.70;;;;;;7384354;19;20009;-70
2023/06/13 08:10:35;;;;;;;17.55;8.98;;;26.60;67.70;;;;;;7385304;19;20078;-70
2023/06/13 08:13:03;;;;;;;13.38;8.98;;;26.70;67.80;;;;;;7386668;19;20006;-70
2023/06/13 08:15:32;;;;;;;19.20;8.65;;;26.60;67.50;;;;;;7385791;19;20365;-69
2023/06/13 08:18:01;;;;;;;15.75;8.20;;;26.70;68.00;;;;;;7384031;19;20023;-69
2023/06/13 08:20:29;;;;;;;27.15;10.20;;;26.70;67.90;;;;;;7405516;19;20020;-70
2023/06/13 08:23:01;;;;;;;33.38;9.00;;;26.80;67.70;;;;;;7384259;19;20019;-69
2023/06/13 08:25:29;;;;;;;18.88;8.85;;;26.80;67.50;;;;;;7384833;19;20058;-70
2023/06/13 08:27:58;;;;;;;17.95;8.30;;;26.80;68.40;;;;;;7385126;19;20098;-70
2023/06/13 08:30:27;;;;;;;26.50;9.55;;;26.70;66.90;;;;;;7388877;19;20009;-71
2023/06/13 08:32:56;;;;;;;16.80;8.88;;;26.80;65.80;;;;;;7386344;19;20023;-70
2023/06/13 08:35:24;;;;;;;15.98;8.57;;;26.80;66.80;;;;;;7407275;19;20067;-70
2023/06/13 08:37:53;;;;;;;16.70;9.02;;;26.80;66.50;;;;;;7383777;19;20081;-69
2023/06/13 08:40:24;;;;;;;22.60;9.30;;;26.80;66.30;;;;;;7383876;19;20003;-69
2023/06/13 08:42:54;;;;;;;13.38;8.70;;;26.80;67.20;;;;;;7384955;19;20006;-69
2023/06/13 08:45:23;;;;;;;17.60;8.55;;;26.80;66.50;;;;;;7382766;19;20306;-70
2023/06/13 08:47:51;;;;;;;14.98;7.70;;;26.90;66.90;;;;;;7383467;19;20007;-70
2023/06/13 08:50:24;;;;;;;15.30;7.78;;;26.90;67.80;;;;;;7406143;19;20362;-69
2023/06/13 08:52:54;;;;;;;19.88;8.18;;;27.00;64.70;;;;;;7387923;19;20011;-69
2023/06/13 08:55:27;;;;;;;17.25;8.02;;;27.00;64.50;;;;;;7385402;19;20366;-69
2023/06/13 08:57:56;;;;;;;24.13;8.45;;;26.90;64.50;;;;;;7383462;19;20062;-69
2023/06/13 09:00:26;;;;;;;19.85;8.00;;;27.00;64.90;;;;;;7383457;19;20019;-69
2023/06/13 09:02:55;;;;;;;18.88;7.57;;;27.10;65.40;;;;;;7382481;19;20035;-70
2023/06/13 09:05:24;;;;;;;19.70;7.85;;;27.10;64.80;;;;;;7403831;19;20016;-69
2023/06/13 09:07:54;;;;;;;17.20;7.80;;;27.10;64.30;;;;;;7382674;19;20149;-69
2023/06/13 09:10:25;;;;;;;16.48;8.32;;;27.20;65.00;;;;;;7380953;19;20010;-68
2023/06/13 09:12:54;;;;;;;19.65;8.23;;;27.00;62.90;;;;;;7383304;19;20062;-68
2023/06/13 09:15:26;;;;;;;17.15;7.85;;;27.10;64.10;;;;;;7383949;19;20003;-68
2023/06/13 09:17:56;;;;;;;22.08;8.32;;;27.20;63.40;;;;;;7381908;19;20204;-68
2023/06/13 09:20:27;;;;;;;19.10;7.30;;;27.20;63.30;;;;;;7403375;19;20003;-68
2023/06/13 09:22:55;;;;;;;19.30;7.30;;;27.30;63.20;;;;;;7382661;19;20003;-69
2023/06/13 09:25:29;;;;;;;14.57;7.55;;;27.30;61.10;;;;;;7383777;19;20062;-70
2023/06/13 09:27:58;;;;;;;21.35;8.27;;;27.40;60.80;;;;;;7383361;19;20225;-70
2023/06/13 09:30:26;;;;;;;18.48;7.20;;;27.40;60.80;;;;;;7382645;19;20006;-69
2023/06/13 09:32:55;;;;;;;17.92;8.00;;;27.50;60.70;;;;;;7381564;19;20003;-69
2023/06/13 09:35:24;;;;;;;16.60;7.80;;;27.40;60.90;;;;;;7404767;19;20002;-70
2023/06/13 09:37:53;;;;;;;14.23;7.13;;;27.50;61.60;;;;;;7380399;19;19999;-69
2023/06/13 09:40:22;;;;;;;15.45;7.53;;;27.50;59.40;;;;;;7382577;19;20263;-69
2023/06/13 09:42:54;;;;;;;18.38;8.30;;;27.50;58.30;;;;;;7382453;19;20007;-71
2023/06/13 09:45:23;;;;;;;12.77;7.28;;;27.60;57.90;;;;;;7381261;19;20315;-70
2023/06/13 09:47:52;;;;;;;20.17;7.60;;;27.70;58.30;;;;;;7382073;19;20007;-69
2023/06/13 09:50:22;;;;;;;19.40;7.30;;;27.60;58.80;;;;;;7402783;19;20010;-69
2023/06/13 09:52:50;;;;;;;13.73;7.30;;;27.70;58.40;;;;;;7381786;19;20074;-69
2023/06/13 09:55:22;;;;;;;10.80;6.82;;;27.80;58.50;;;;;;7382405;19;20006;-70
2023/06/13 09:57:56;;;;;;;14.13;7.25;;;27.80;57.40;;;;;;7381386;19;20010;-70
2023/06/13 10:00:24;;;;;;;13.65;7.30;;;27.90;57.60;;;;;;7381120;19;20288;-69
2023/06/13 10:02:53;;;;;;;12.82;7.35;;;27.90;57.10;;;;;;7382135;19;20006;-71
2023/06/13 10:05:22;;;;;;;16.35;6.85;;;28.00;56.90;;;;;;7403808;19;20002;-70
2023/06/13 10:07:51;;;;;;;16.10;6.75;;;28.00;56.60;;;;;;7380679;19;20006;-70
2023/06/13 10:10:20;;;;;;;15.32;6.95;;;28.10;56.50;;;;;;7381256;19;20007;-70
2023/06/13 10:12:52;;;;;;;10.95;7.30;;;28.10;55.60;;;;;;7382003;19;20023;-69
2023/06/13 10:15:29;;;;;;;23.33;7.60;;;28.20;56.70;;;;;;7380664;19;20006;-70
2023/06/13 10:18:02;;;;;;;17.00;8.85;;;28.20;56.50;;;;;;7381583;19;20010;-70
2023/06/13 10:20:32;;;;;;;20.40;6.97;;;28.30;56.30;;;;;;7400962;19;20394;-70
2023/06/13 10:23:01;;;;;;;15.93;7.50;;;28.30;55.40;;;;;;7380115;19;20005;-72
2023/06/13 10:25:30;;;;;;;9.27;6.57;;;28.30;55.20;;;;;;7381403;19;20020;-71
2023/06/13 10:28:07;;;;;;;11.65;6.15;;;28.40;54.60;;;;;;7381194;19;20007;-71
2023/06/13 10:30:55;;;;;;;14.23;6.55;;;28.40;54.50;;;;;;7381697;19;20066;-71
2023/06/13 10:33:42;;;;;;;13.40;7.72;;;28.40;54.10;;;;;;7380386;19;20019;-73
2023/06/13 10:36:24;;;;;;;15.25;6.90;;;28.50;54.50;;;;;;7379871;19;20015;-73
2023/06/13 10:39:25;;;;;;;8.32;6.78;;;28.40;54.50;;;;;;7379320;19;20014;-70
2023/06/13 10:42:02;;;;;;;17.20;6.97;;;28.40;54.80;;;;;;7379881;19;20006;-71
2023/06/13 10:44:35;;;;;;;10.48;7.07;;;28.50;53.10;;;;;;7403612;19;20070;-71
2023/06/13 10:47:08;;;;;;;12.57;7.50;;;28.60;53.70;;;;;;7380849;19;20066;-70
2023/06/13 10:49:41;;;;;;;12.65;7.47;;;28.60;54.80;;;;;;7380223;19;20009;-71
2023/06/13 10:52:13;;;;;;;16.73;7.82;;;28.60;54.80;;;;;;7380735;19;19999;-70
2023/06/13 10:54:42;;;;;;;13.00;6.53;;;28.60;54.70;;;;;;7379636;19;20092;-70
2023/06/13 10:57:11;;;;;;;9.57;7.05;;;28.70;54.00;;;;;;7381001;19;20003;-70
2023/06/13 10:59:42;;;;;;;15.43;6.90;;;28.80;53.60;;;;;;7389614;19;20007;-70
2023/06/13 11:02:17;;;;;;;19.75;9.40;;;28.80;53.30;;;;;;7401595;19;20007;-72
2023/06/13 11:04:54;;;;;;;9.40;6.95;;;28.90;52.90;;;;;;7380478;19;20354;-71
2023/06/13 11:07:33;;;;;;;21.27;7.18;;;28.90;50.80;;;;;;7380003;19;20007;-71
2023/06/13 11:10:14;;;;;;;11.10;7.30;;;29.00;50.60;;;;;;7380121;19;20058;-72
2023/06/13 11:12:44;;;;;;;;;;;29.00;50.40;;;;;;7380064;19;20010;-71
2023/06/13 11:15:24;;;;;;;11.57;6.50;;;29.10;49.60;;;;;;7379964;19;19907;-71
2023/06/13 11:18:23;;;;;;;18.17;6.65;;;29.10;47.50;;;;;;7379817;19;20382;-72
2023/06/13 11:20:55;;;;;;;24.95;7.65;;;29.10;48.80;;;;;;7380170;19;20083;-72
2023/06/13 11:23:26;;;;;;;9.77;7.18;;;29.20;50.10;;;;;;7399621;19;20010;-73
2023/06/13 11:25:55;;;;;;;14.13;7.47;;;29.20;50.80;;;;;;7381857;19;19999;-72
2023/06/13 11:28:24;;;;;;;11.35;6.88;;;29.20;50.80;;;;;;7379071;19;20019;-72
2023/06/13 11:30:55;;;;;;;15.75;7.60;;;29.30;51.20;;;;;;7379631;19;20054;-72
2023/06/13 11:33:27;;;;;;;18.38;7.60;;;29.30;51.50;;;;;;7381061;19;20007;-72
2023/06/13 11:36:00;;;;;;;11.80;7.57;;;29.30;51.70;;;;;;7386807;19;20058;-72
2023/06/13 11:38:36;;;;;;;15.45;7.63;;;29.40;51.60;;;;;;7408338;19;20011;-72
2023/06/13 11:41:05;;;;;;;15.60;7.93;;;29.40;50.90;;;;;;7386408;19;20003;-72
2023/06/13 11:43:35;;;;;;;11.68;7.43;;;29.50;52.00;;;;;;7385488;19;20063;-72
2023/06/13 11:46:05;;;;;;;10.63;7.47;;;29.50;52.80;;;;;;7386568;19;20002;-72
2023/06/13 11:48:34;;;;;;;13.93;7.18;;;29.50;52.90;;;;;;7385691;19;20370;-72
2023/06/13 11:51:16;;;;;;;12.82;7.32;;;29.50;51.80;;;;;;7384664;19;20020;-73
2023/06/13 11:53:55;;;;;;;15.00;7.13;;;29.50;52.40;;;;;;7386610;19;20075;-72
2023/06/13 11:56:26;;;;;;;16.92;7.30;;;29.50;52.30;;;;;;7410024;19;20010;-73
2023/06/13 11:58:57;;;;;;;10.55;6.57;;;29.50;51.80;;;;;;7385814;19;20007;-71
2023/06/13 12:01:27;;;;;;;13.75;7.78;;;29.50;51.00;;;;;;7387090;19;20257;-72
2023/06/13 12:03:56;;;;;;;12.40;7.15;;;29.60;50.60;;;;;;7386867;19;20007;-72
2023/06/13 12:06:28;;;;;;;13.80;7.15;;;29.70;50.90;;;;;;7386360;19;20066;-72
2023/06/13 12:08:57;;;;;;;13.77;6.22;;;29.70;50.70;;;;;;7383527;19;20010;-72
2023/06/13 12:11:26;;;;;;;10.50;5.90;;;29.70;50.30;;;;;;7405744;19;20010;-72
2023/06/13 12:13:59;;;;;;;10.82;6.43;;;29.70;49.70;;;;;;7385256;19;20220;-72
2023/06/13 12:16:29;;;;;;;14.98;7.25;;;29.80;49.40;;;;;;7385592;19;20016;-72
2023/06/13 12:18:59;;;;;;;14.07;7.53;;;29.80;49.00;;;;;;7384270;19;20050;-72
2023/06/13 12:21:32;;;;;;;13.95;6.78;;;29.90;48.30;;;;;;7385999;19;20393;-72
2023/06/13 12:24:03;;;;;;;10.98;6.05;;;29.90;49.10;;;;;;7385689;19;20022;-72
2023/06/13 12:26:33;;;;;;;;;;;29.90;48.20;;;;;;7407662;19;20011;-72
2023/06/13 12:29:06;;;;;;;16.75;7.60;;;30.00;48.40;;;;;;7383191;19;19923;-72
2023/06/13 12:31:38;;;;;;;11.48;6.50;;;30.00;48.90;;;;;;7384999;19;20009;-72
2023/06/13 12:34:13;;;;;;;11.73;6.40;;;30.10;48.80;;;;;;7384815;19;20003;-72
2023/06/13 12:36:46;;;;;;;9.52;6.57;;;30.10;48.70;;;;;;7384659;19;20026;-72
2023/06/13 12:39:17;;;;;;;10.55;6.30;;;30.10;48.30;;;;;;7385493;19;20006;-73
2023/06/13 12:41:47;;;;;;;12.75;6.47;;;30.20;48.20;;;;;;7384284;19;20361;-73
2023/06/13 12:44:16;;;;;;;10.93;6.03;;;30.30;48.20;;;;;;7405364;19;20013;-73
2023/06/13 12:46:47;;;;;;;11.98;5.90;;;30.30;48.20;;;;;;7383954;19;20247;-72
2023/06/13 12:49:20;;;;;;;11.20;6.10;;;30.40;48.40;;;;;;7383470;19;20275;-72
2023/06/13 12:51:54;;;;;;;9.00;6.30;;;30.40;48.40;;;;;;7384304;19;20251;-71
2023/06/13 12:54:23;;;;;;;12.73;6.68;;;30.50;48.10;;;;;;7384522;19;20006;-72
2023/06/13 12:56:54;;;;;;;17.88;6.20;;;30.50;47.70;;;;;;7382547;19;20010;-72
2023/06/13 12:59:34;;;;;;;12.55;6.30;;;30.60;47.90;;;;;;7403647;19;20248;-71
2023/06/13 13:02:05;;;;;;;11.88;6.47;;;30.60;47.70;;;;;;7383540;19;20022;-72
2023/06/13 13:04:35;;;;;;;12.50;6.40;;;30.60;48.10;;;;;;7386498;19;20235;-72
2023/06/13 13:07:09;;;;;;;8.73;6.45;;;30.70;48.80;;;;;;7393276;19;19999;-72
2023/06/13 13:09:40;;;;;;;14.75;6.57;;;30.70;48.80;;;;;;7384099;19;20002;-71
2023/06/13 13:12:10;;;;;;;11.35;6.40;;;30.80;48.20;;;;;;7382477;19;20365;-72
2023/06/13 13:14:39;;;;;;;11.23;6.65;;;30.80;47.70;;;;;;7400860;19;20003;-71
2023/06/13 13:17:09;;;;;;;17.00;6.50;;;30.90;47.90;;;;;;7405465;19;20006;-72
2023/06/13 13:19:37;;;;;;;9.05;6.20;;;31.00;48.30;;;;;;7383282;19;20002;-72
2023/06/13 13:22:09;;;;;;;10.88;6.32;;;31.00;48.00;;;;;;7383550;19;20058;-72
2023/06/13 13:24:38;;;;;;;7.78;5.95;;;31.00;47.20;;;;;;7382421;19;20006;-71
2023/06/13 13:27:07;;;;;;;12.30;6.28;;;31.00;46.70;;;;;;7383566;19;20371;-72
2023/06/13 13:29:36;;;;;;;9.52;6.18;;;31.10;47.20;;;;;;7402979;19;20003;-72
2023/06/13 13:32:05;;;;;;;8.15;5.93;;;31.10;46.80;;;;;;7382853;19;20010;-72
2023/06/13 13:34:35;;;;;;;9.07;5.90;;;31.10;47.90;;;;;;7383124;19;20002;-72
2023/06/13 13:37:03;;;;;;;10.95;6.47;;;31.20;47.40;;;;;;7383276;19;20026;-71
2023/06/13 13:39:35;;;;;;;13.07;6.00;;;31.20;46.80;;;;;;7383390;19;20003;-71
2023/06/13 13:42:05;;;;;;;11.13;5.95;;;31.30;47.80;;;;;;7382420;19;20007;-71
2023/06/13 13:44:33;;;;;;;14.77;6.47;;;31.30;47.10;;;;;;7402689;19;20038;-71
2023/06/13 13:47:02;;;;;;;10.25;5.90;;;31.40;47.20;;;;;;7381737;19;20003;-70
2023/06/13 13:49:32;;;;;;;13.15;6.13;;;31.50;46.80;;;;;;7381128;19;20398;-72
2023/06/13 13:52:00;;;;;;;11.60;6.18;;;31.50;46.80;;;;;;7381917;19;20017;-71
2023/06/13 13:54:29;;;;;;;13.68;6.50;;;31.60;46.10;;;;;;7382102;19;20302;-70
2023/06/13 13:57:01;;;;;;;11.25;5.88;;;31.60;46.20;;;;;;7381380;19;20024;-70
2023/06/13 13:59:29;;;;;;;13.20;6.68;;;31.70;46.30;;;;;;7401774;19;20010;-70
2023/06/13 14:01:58;;;;;;;11.15;6.70;;;31.80;45.80;;;;;;7381094;19;20120;-70
2023/06/13 14:04:28;;;;;;;15.25;6.30;;;31.80;45.90;;;;;;7381416;19;20020;-70
2023/06/13 14:06:57;;;;;;;14.25;6.65;;;31.80;45.30;;;;;;7381201;19;20014;-71
2023/06/13 14:09:25;;;;;;;17.27;6.95;;;31.80;45.00;;;;;;7381443;19;20014;-71
2023/06/13 14:11:54;;;;;;;13.65;7.07;;;31.70;45.20;;;;;;7381658;19;20010;-74
2023/06/13 14:14:26;;;;;;;10.25;6.72;;;31.80;45.80;;;;;;7403079;19;20011;-73
2023/06/13 14:16:55;;;;;;;13.45;7.15;;;31.80;46.20;;;;;;7381007;19;20066;-72
2023/06/13 14:19:23;;;;;;;11.90;6.88;;;31.90;45.90;;;;;;7381238;19;20031;-72
2023/06/13 14:21:52;;;;;;;13.88;6.80;;;32.00;46.30;;;;;;7380929;19;20079;-72
2023/06/13 14:24:21;;;;;;;18.27;7.07;;;32.10;45.60;;;;;;7381580;19;20070;-72
2023/06/13 14:26:49;;;;;;;14.40;6.05;;;32.20;45.60;;;;;;7381729;19;20015;-72
2023/06/13 14:29:18;;;;;;;11.30;6.97;;;32.20;45.80;;;;;;7400630;19;20023;-72
2023/06/13 14:31:49;;;;;;;13.13;6.85;;;32.30;45.50;;;;;;7380455;19;20002;-72
2023/06/13 14:34:18;;;;;;;14.02;7.70;;;32.30;46.10;;;;;;7381459;19;20015;-72
2023/06/13 14:36:53;;;;;;;12.35;7.50;;;32.30;46.00;;;;;;7381172;19;20002;-72
2023/06/13 14:39:21;;;;;;;10.82;7.10;;;32.40;45.70;;;;;;7381487;19;20074;-72
2023/06/13 14:41:50;;;;;;;13.93;7.18;;;32.50;45.20;;;;;;7380027;19;20019;-72
2023/06/13 14:44:19;;;;;;;10.68;6.50;;;32.50;45.20;;;;;;7403346;19;20023;-72
2023/06/13 14:46:50;;;;;;;22.75;7.38;;;32.50;44.30;;;;;;7380216;19;20376;-73
2023/06/13 14:49:19;;;;;;;10.32;6.45;;;32.30;44.40;;;;;;7379810;19;20006;-72
2023/06/13 14:51:48;;;;;;;15.07;6.70;;;32.20;44.90;;;;;;7380596;19;20003;-72
2023/06/13 14:54:17;;;;;;;12.57;7.13;;;32.30;46.10;;;;;;7380671;19;20060;-72
2023/06/13 14:56:45;;;;;;;15.85;6.80;;;32.40;45.10;;;;;;7380596;19;20032;-72
2023/06/13 14:59:14;;;;;;;19.90;7.68;;;32.50;45.00;;;;;;7400489;19;20011;-72
2023/06/13 15:01:43;;;;;;;13.45;7.60;;;32.50;44.40;;;;;;7379351;19;20010;-72
2023/06/13 15:04:14;;;;;;;10.15;6.53;;;32.60;44.00;;;;;;7380738;19;20006;-72
2023/06/13 15:06:43;;;;;;;12.93;6.35;;;32.70;44.00;;;;;;7379289;19;20070;-72
2023/06/13 15:09:12;;;;;;;10.43;6.68;;;32.70;43.40;;;;;;7381017;19;20007;-72
2023/06/13 15:11:42;;;;;;;13.60;7.05;;;32.70;42.70;;;;;;7394336;19;20023;-71
2023/06/13 15:14:13;;;;;;;11.65;7.32;;;32.70;43.30;;;;;;7414519;19;20007;-72
2023/06/13 15:16:42;;;;;;;10.43;6.60;;;32.70;43.60;;;;;;7388631;19;20042;-72
2023/06/13 15:19:13;;;;;;;15.43;6.50;;;32.90;43.40;;;;;;7388721;19;20030;-72
2023/06/13 15:21:42;;;;;;;12.05;6.80;;;33.00;43.40;;;;;;7386048;19;20007;-73
2023/06/13 15:24:11;;;;;;;9.20;6.75;;;33.10;42.90;;;;;;7387319;19;19999;-72
2023/06/13 15:26:40;;;;;;;13.55;7.20;;;33.10;42.00;;;;;;7390913;19;20017;-72
2023/06/13 15:29:09;;;;;;;10.70;6.75;;;33.40;43.20;;;;;;7408066;19;20031;-72
2023/06/13 15:31:37;;;;;;;11.98;7.13;;;33.80;42.10;;;;;;7385935;19;20007;-72
2023/06/13 15:34:06;;;;;;;13.52;6.40;;;34.30;41.20;;;;;;7386959;19;20422;-72
2023/06/13 15:36:37;;;;;;;11.88;6.72;;;34.70;40.50;;;;;;7386872;19;20014;-72
2023/06/13 15:39:07;;;;;;;13.75;6.70;;;35.30;41.00;;;;;;7386484;19;20011;-72
2023/06/13 15:41:36;;;;;;;24.17;6.47;;;35.90;39.20;;;;;;7408221;19;20362;-72
2023/06/13 15:44:05;;;;;;;12.88;6.88;;;36.40;39.60;;;;;;7386245;19;20117;-72
2023/06/13 15:46:34;;;;;;;8.20;5.75;;;36.80;38.50;;;;;;7386182;19;20006;-73
2023/06/13 15:49:03;;;;;;;15.98;6.38;;;37.30;38.20;;;;;;7385363;19;20023;-72
2023/06/13 15:51:32;;;;;;;10.40;6.10;;;37.80;38.10;;;;;;7384774;19;20064;-73
2023/06/13 15:54:03;;;;;;;18.35;8.05;;;38.00;37.20;;;;;;7386590;19;20388;-72
2023/06/13 15:56:32;;;;;;;9.70;7.22;;;38.40;37.50;;;;;;7408455;19;20014;-72
2023/06/13 15:59:01;;;;;;;21.98;7.57;;;38.80;36.80;;;;;;7383683;19;20011;-72
2023/06/13 16:01:30;;;;;;;15.07;7.03;;;39.20;36.60;;;;;;7385481;19;20287;-72
2023/06/13 16:03:58;;;;;;;9.60;6.22;;;39.40;36.20;;;;;;7385015;19;20098;-72
2023/06/13 16:06:28;;;;;;;13.05;5.65;;;39.60;35.80;;;;;;7386514;19;20010;-72
2023/06/13 16:08:56;;;;;;;15.27;6.45;;;39.90;35.80;;;;;;7385554;19;20035;-72
2023/06/13 16:11:28;;;;;;;7.20;5.57;;;40.10;35.10;;;;;;7404875;19;20010;-72
2023/06/13 16:13:57;;;;;;;7.72;5.75;;;40.20;35.00;;;;;;7385366;19;20086;-72
2023/06/13 16:16:25;;;;;;;6.30;5.38;;;40.30;34.90;;;;;;7384791;19;19999;-72
2023/06/13 16:18:54;;;;;;;17.80;5.63;;;40.40;35.10;;;;;;7384354;19;20002;-72
2023/06/13 16:21:24;;;;;;;10.90;5.88;;;40.60;34.20;;;;;;7385107;19;20016;-73
2023/06/13 16:23:53;;;;;;;8.43;6.30;;;40.80;33.90;;;;;;7383413;19;20007;-72
2023/06/13 16:26:22;;;;;;;13.07;7.25;;;41.00;33.30;;;;;;7404812;19;20027;-72
2023/06/13 16:28:53;;;;;;;10.10;6.35;;;41.10;33.20;;;;;;7384305;19;20009;-72
2023/06/13 16:31:22;;;;;;;7.10;5.32;;;41.10;32.80;;;;;;7383817;19;20321;-72
2023/06/13 16:33:51;;;;;;;7.50;5.50;;;41.10;32.90;;;;;;7384242;19;20011;-72
2023/06/13 16:36:20;;;;;;;12.27;5.60;;;41.40;32.90;;;;;;7385058;19;20018;-72
2023/06/13 16:38:49;;;;;;;16.80;5.88;;;41.80;32.60;;;;;;7383050;19;20006;-72
2023/06/13 16:41:17;;;;;;;15.52;6.55;;;42.00;32.60;;;;;;7406649;19;20006;-72
2023/06/13 16:43:46;;;;;;;8.40;5.38;;;42.20;32.60;;;;;;7383857;19;19999;-72
2023/06/13 16:46:17;;;;;;;9.48;5.90;;;42.50;32.80;;;;;;7384679;19;20023;-72
2023/06/13 16:48:46;;;;;;;8.77;5.10;;;42.70;32.30;;;;;;7383333;19;20006;-72
2023/06/13 16:51:15;;;;;;;9.55;5.35;;;42.80;32.00;;;;;;7383589;19;20007;-72
2023/06/13 16:53:43;;;;;;;9.98;5.32;;;42.70;31.80;;;;;;7383903;19;20238;-72
2023/06/13 16:56:12;;;;;;;9.85;5.63;;;42.70;31.80;;;;;;7405818;19;20362;-72
2023/06/13 16:58:41;;;;;;;8.63;5.00;;;42.80;31.70;;;;;;7382198;19;20019;-72
2023/06/13 17:01:10;;;;;;;16.60;5.00;;;43.10;32.00;;;;;;7383063;19;20024;-73
2023/06/13 17:03:43;;;;;;;12.95;4.80;;;43.40;31.40;;;;;;7384540;19;20231;-73
2023/06/13 17:06:12;;;;;;;5.03;4.20;;;43.70;31.40;;;;;;7384165;19;20003;-73
2023/06/13 17:08:40;;;;;;;9.75;4.70;;;44.00;31.10;;;;;;7381854;19;20053;-72
2023/06/13 17:11:09;;;;;;;9.15;5.00;;;44.20;31.40;;;;;;7404775;19;20083;-72
2023/06/13 17:13:40;;;;;;;11.10;4.97;;;44.30;31.60;;;;;;7383575;19;20367;-72
2023/06/13 17:16:09;;;;;;;15.18;6.43;;;44.60;30.60;;;;;;7387659;19;20010;-72
2023/06/13 17:18:40;;;;;;;10.15;5.63;;;44.80;30.20;;;;;;7389110;19;20007;-72
2023/06/13 17:21:09;;;;;;;8.82;5.70;;;44.90;30.20;;;;;;7385754;19;20020;-72
2023/06/13 17:23:38;;;;;;;10.25;5.18;;;45.10;30.20;;;;;;7405740;19;20006;-72
2023/06/13 17:26:06;;;;;;;11.85;5.53;;;45.10;30.20;;;;;;7383060;19;20227;-73
2023/06/13 17:28:36;;;;;;;5.63;4.18;;;45.10;30.20;;;;;;7382275;19;20023;-73
2023/06/13 17:31:04;;;;;;;9.88;5.13;;;45.10;30.10;;;;;;7379664;19;20394;-73
2023/06/13 17:33:33;;;;;;;11.23;6.38;;;45.00;30.20;;;;;;7384813;19;20023;-73
2023/06/13 17:36:06;;;;;;;9.00;5.90;;;44.90;30.00;;;;;;7383527;19;20011;-73
2023/06/13 17:38:34;;;;;;;12.45;6.25;;;44.90;30.40;;;;;;7405439;19;20215;-73
2023/06/13 17:41:03;;;;;;;9.75;5.88;;;44.80;29.90;;;;;;7384323;19;20372;-73
2023/06/13 17:43:32;;;;;;;12.63;5.63;;;44.80;30.00;;;;;;7383192;19;20271;-72
2023/06/13 17:46:01;;;;;;;8.90;6.03;;;44.70;30.00;;;;;;7383378;19;20007;-73
2023/06/13 17:48:29;;;;;;;11.68;5.40;;;44.80;30.20;;;;;;7382856;19;20006;-72
2023/06/13 17:51:02;;;;;;;19.05;5.00;;;44.90;30.20;;;;;;7382282;19;20007;-73
2023/06/13 17:53:33;;;;;;;7.90;4.63;;;44.80;30.30;;;;;;7403907;19;20034;-72
2023/06/13 17:56:13;;;;;;;8.48;4.93;;;44.70;30.30;;;;;;7384051;19;20014;-76
2023/06/13 17:59:09;;;;;;;176.90;154.90;;;44.60;30.90;;;;;;7389847;19;20015;-82
2023/06/13 18:01:55;;;;;;;13.02;10.00;;;44.50;31.30;;;;;;7386114;19;20017;-80
2023/06/13 18:04:31;;;;;;;67.35;51.03;;;44.40;31.80;;;;;;7389415;19;20011;-81
2023/06/13 18:07:01;;;;;;;10.52;8.68;;;44.20;31.80;;;;;;7383394;19;20011;-80
2023/06/13 18:09:33;;;;;;;47.28;35.58;;;44.20;32.10;;;;;;7405750;19;20010;-78
2023/06/13 18:12:02;;;;;;;31.88;25.05;;;44.20;31.60;;;;;;7388868;19;20015;-78
2023/06/13 18:14:31;;;;;;;22.77;14.48;;;44.10;32.70;;;;;;7407386;19;20014;-79
2023/06/13 18:17:21;;;;;;;13.30;6.68;;;44.00;31.80;;;;;;7387987;19;20007;-85
2023/06/13 18:19:56;;;;;;;14.32;6.60;;;43.70;31.80;;;;;;7386983;19;20010;-84
2023/06/13 18:22:31;;;;;;;9.13;5.72;;;43.60;32.50;;;;;;7386054;19;20006;-82
2023/06/13 18:25:05;;;;;;;14.88;5.85;;;43.50;32.20;;;;;;7386478;19;20028;-79
2023/06/13 18:27:34;;;;;;;57.33;43.47;;;43.50;32.90;;;;;;7409961;19;20007;-82
2023/06/13 18:30:02;;;;;;;143.82;106.72;;;43.50;32.60;;;;;;7396763;19;20035;-78
2023/06/13 18:32:33;;;;;;;184.43;138.15;;;43.40;32.70;;;;;;7419701;19;20006;-79
2023/06/13 18:38:13;;;;;;;13.43;6.28;;;42.80;32.80;;;;;;7407585;19;20338;-76
2023/06/13 18:40:56;;;;;;;30.63;23.98;;;42.60;33.30;;;;;;7386761;19;20007;-81
2023/06/13 18:43:27;;;;;;;16.08;10.10;;;42.30;33.50;;;;;;7385944;19;20005;-77
2023/06/13 18:45:56;;;;;;;33.40;22.90;;;42.10;34.10;;;;;;7384584;19;20413;-76
2023/06/13 18:52:17;;;;;;;132.07;98.20;;;41.50;34.10;;;;;;7384339;19;20007;-79
2023/06/13 18:55:01;;;;;;;278.60;218.48;;;41.30;34.00;;;;;;7381632;19;20007;-78
2023/06/13 18:57:33;;;;;;;23.73;19.25;;;40.90;34.90;;;;;;7385827;19;20011;-78
2023/06/13 19:00:04;;;;;;;17.77;12.98;;;40.60;35.70;;;;;;7386663;19;20022;-77
2023/06/13 19:02:33;;;;;;;9.80;5.97;;;40.30;36.00;;;;;;7409322;19;20011;-77
2023/06/13 19:05:52;;;;;;;12.52;6.13;;;40.00;37.40;;;;;;7387315;19;20010;-78
2023/06/13 19:08:21;;;;;;;102.43;78.75;;;39.50;38.40;;;;;;7390483;19;20015;-77
2023/06/13 19:10:51;;;;;;;29.20;20.80;;;39.10;39.00;;;;;;7383552;19;20003;-75
2023/06/13 19:13:28;;;;;;;177.98;127.55;;;38.50;39.40;;;;;;7383752;19;19999;-83
2023/06/13 19:16:03;;;;;;;35.85;17.80;;;37.60;40.20;;;;;;7384543;19;20023;-80
2023/06/13 19:18:32;;;;;;;12.43;8.27;;;36.80;41.10;;;;;;7383965;19;20044;-78
2023/06/13 19:21:01;;;;;;;81.43;66.60;;;35.90;42.20;;;;;;7394341;19;19999;-80
2023/06/13 19:23:32;;;;;;;96.13;68.78;;;35.20;43.20;;;;;;7417830;19;20007;-78
2023/06/13 19:26:02;;;;;;;;;;;34.50;43.50;;;;;;7384791;19;20010;-80
2023/06/13 19:28:34;;;;;;;38.17;25.73;;;34.00;44.40;;;;;;7384533;19;19938;-80
2023/06/13 19:31:03;;;;;;;32.95;22.40;;;33.40;45.20;;;;;;7384894;19;20034;-80
2023/06/13 19:33:31;;;;;;;31.45;20.55;;;33.00;45.70;;;;;;7383761;19;20026;-79
2023/06/13 19:36:14;;;;;;;47.85;29.83;;;32.60;46.30;;;;;;7389550;19;20045;-80
2023/06/13 19:38:43;;;;;;;9.18;6.70;;;32.30;46.50;;;;;;7381318;19;20235;-77
2023/06/13 19:41:16;;;;;;;11.82;6.60;;;32.00;47.20;;;;;;7401543;19;20003;-79
2023/06/13 19:43:51;;;;;;;11.07;6.90;;;31.70;47.30;;;;;;7384684;19;20007;-78
2023/06/13 19:46:20;;;;;;;39.22;27.05;;;31.40;47.50;;;;;;7382950;19;20006;-79
2023/06/13 19:48:48;;;;;;;118.80;82.43;;;31.20;47.20;;;;;;7384733;19;20031;-78
2023/06/13 19:51:17;;;;;;;56.45;37.75;;;31.10;47.50;;;;;;7380768;19;20007;-81
2023/06/13 19:53:46;;;;;;;33.17;19.40;;;30.90;47.80;;;;;;7382420;19;20215;-80
2023/06/13 19:56:16;;;;;;;14.52;8.95;;;30.80;47.50;;;;;;7410258;19;20013;-80
2023/06/13 19:58:49;;;;;;;12.35;6.45;;;30.60;47.80;;;;;;7385544;19;20014;-79
2023/06/13 20:01:20;;;;;;;148.38;91.32;;;30.50;47.60;;;;;;7387209;19;20110;-78
2023/06/13 20:03:48;;;;;;;103.10;72.75;;;30.40;47.00;;;;;;7388232;19;20003;-78
2023/06/13 20:06:20;;;;;;;14.52;8.32;;;30.30;47.30;;;;;;7388106;19;20002;-79